Time;durP1;ratioP1;P1;durP2;ratioP2;P2;SDS_P1;SDS_P2;PMS_P1;PMS_P2;Temp;Humidity;BMP_temperature;BMP_pressure;BME280_temperature;BME280_humidity;BME280_pressure;Samples;Min_cycle;Max_cycle;Signal;HPM_P1;HPM_P2
2023/04/28 00:01:39;;;;;;;9.75;4.93;;;13.00;99.90;;;;;;5021401;28;20033;-76
2023/04/28 00:04:04;;;;;;;10.95;5.93;;;12.90;99.90;;;;;;5021730;28;20021;-76
2023/04/28 00:06:30;;;;;;;12.43;4.78;;;12.90;99.90;;;;;;5021422;28;20116;-76
2023/04/28 00:08:55;;;;;;;12.77;5.30;;;12.90;99.90;;;;;;5021320;28;20047;-77
2023/04/28 00:11:21;;;;;;;12.30;4.68;;;12.90;99.90;;;;;;5038722;28;20032;-77
2023/04/28 00:13:46;;;;;;;8.00;4.07;;;12.90;99.90;;;;;;5038980;28;20029;-76
2023/04/28 00:16:12;;;;;;;11.98;5.38;;;12.90;99.90;;;;;;5021118;28;20033;-77
2023/04/28 00:18:37;;;;;;;11.07;4.90;;;12.90;99.90;;;;;;5038616;28;20025;-77
2023/04/28 00:21:03;;;;;;;9.57;4.40;;;12.90;99.90;;;;;;5021105;28;20112;-77
2023/04/28 00:23:29;;;;;;;9.75;4.65;;;12.80;99.90;;;;;;5021389;28;20021;-76
2023/04/28 00:25:55;;;;;;;8.30;4.93;;;12.80;99.90;;;;;;5020995;28;20025;-76
2023/04/28 00:28:21;;;;;;;7.22;4.15;;;12.80;99.90;;;;;;5020929;28;20029;-77
2023/04/28 00:30:46;;;;;;;11.98;4.38;;;12.70;99.90;;;;;;5021115;28;20090;-77
2023/04/28 00:33:13;;;;;;;10.40;4.80;;;12.70;99.90;;;;;;5020132;28;20033;-77
2023/04/28 00:35:39;;;;;;;13.65;5.50;;;12.70;99.90;;;;;;5021555;28;20025;-77
2023/04/28 00:38:05;;;;;;;12.10;5.10;;;12.80;99.90;;;;;;5021051;28;20028;-77
2023/04/28 00:40:35;;;;;;;9.63;4.97;;;12.80;99.90;;;;;;5021973;28;20017;-77
2023/04/28 00:43:01;;;;;;;10.23;5.20;;;12.80;99.90;;;;;;5021530;28;20021;-77
2023/04/28 00:45:27;;;;;;;9.13;4.60;;;12.80;99.90;;;;;;5020850;28;20112;-77
2023/04/28 00:47:53;;;;;;;13.00;4.97;;;12.80;99.90;;;;;;5021080;28;20030;-77
2023/04/28 00:50:20;;;;;;;12.18;4.55;;;12.80;99.90;;;;;;5021340;28;20080;-77
2023/04/28 00:52:46;;;;;;;15.55;4.95;;;12.80;99.90;;;;;;5020826;28;20087;-77
2023/04/28 00:55:19;;;;;;;8.93;4.85;;;12.70;99.90;;;;;;5116012;27;20364;-76
2023/04/28 00:57:45;;;;;;;15.25;4.95;;;12.70;99.90;;;;;;5115092;28;20030;-76
2023/04/28 01:00:11;;;;;;;11.35;5.53;;;12.70;99.90;;;;;;5114024;28;20123;-76
2023/04/28 01:02:37;;;;;;;10.80;4.65;;;12.70;99.90;;;;;;5114003;28;20027;-76
2023/04/28 01:05:03;;;;;;;13.65;4.97;;;12.70;99.90;;;;;;5114054;28;20020;-76
2023/04/28 01:07:29;;;;;;;11.43;4.47;;;12.60;99.90;;;;;;5114785;28;20031;-76
2023/04/28 01:09:55;;;;;;;12.15;4.70;;;12.60;99.90;;;;;;5114823;28;20039;-76
2023/04/28 01:12:21;;;;;;;14.30;4.50;;;12.60;99.90;;;;;;5113829;28;20081;-76
2023/04/28 01:14:48;;;;;;;11.45;3.95;;;12.60;99.90;;;;;;5113974;28;20020;-76
2023/04/28 01:17:13;;;;;;;7.55;4.15;;;12.60;99.90;;;;;;5113708;28;20157;-76
2023/04/28 01:19:39;;;;;;;9.30;5.00;;;12.50;99.90;;;;;;5114043;28;20069;-76
2023/04/28 01:22:05;;;;;;;13.15;4.45;;;12.50;99.90;;;;;;5113844;28;20023;-76
2023/04/28 01:24:30;;;;;;;7.20;4.35;;;12.50;99.90;;;;;;5113680;28;20024;-76
2023/04/28 01:26:56;;;;;;;7.15;4.35;;;12.50;99.90;;;;;;5113662;28;20050;-76
2023/04/28 01:29:21;;;;;;;11.98;4.50;;;12.50;99.90;;;;;;5113576;28;20020;-76
2023/04/28 01:31:47;;;;;;;11.80;4.28;;;12.40;99.90;;;;;;5113514;28;20028;-76
2023/04/28 01:34:12;;;;;;;9.32;4.13;;;12.40;99.90;;;;;;5113458;28;20030;-76
2023/04/28 01:36:38;;;;;;;13.68;4.55;;;12.40;99.90;;;;;;5113461;28;20024;-76
2023/04/28 01:39:05;;;;;;;9.02;3.83;;;12.40;99.90;;;;;;5113363;28;20081;-76
2023/04/28 01:41:33;;;;;;;15.63;4.82;;;12.40;99.90;;;;;;5113484;28;20073;-76
2023/04/28 01:43:59;;;;;;;10.45;4.60;;;12.30;99.90;;;;;;5113188;28;20035;-76
2023/04/28 01:46:24;;;;;;;6.20;3.85;;;12.40;99.90;;;;;;5114385;28;20028;-76
2023/04/28 01:48:50;;;;;;;7.63;4.40;;;12.40;99.90;;;;;;5114155;28;20046;-76
2023/04/28 01:51:15;;;;;;;7.38;4.13;;;12.30;99.90;;;;;;5113245;28;20039;-76
2023/04/28 01:53:41;;;;;;;7.80;4.45;;;12.30;99.90;;;;;;5113207;28;20028;-76
2023/04/28 01:56:06;;;;;;;8.02;4.50;;;12.20;99.90;;;;;;5112972;28;20020;-77
2023/04/28 01:58:32;;;;;;;10.52;4.57;;;12.20;99.90;;;;;;5112897;28;20024;-76
2023/04/28 02:00:57;;;;;;;11.68;4.45;;;12.20;99.90;;;;;;5113074;28;20066;-76
2023/04/28 02:03:23;;;;;;;10.35;4.65;;;12.30;99.90;;;;;;5113197;28;20016;-76
2023/04/28 02:05:49;;;;;;;14.95;5.07;;;12.30;99.90;;;;;;5105299;28;20024;-76
2023/04/28 02:08:14;;;;;;;10.30;5.40;;;12.20;99.90;;;;;;5100251;28;20087;-76
2023/04/28 02:10:40;;;;;;;17.05;5.25;;;12.20;99.90;;;;;;5099381;28;20020;-76
2023/04/28 02:13:06;;;;;;;8.57;4.85;;;12.30;99.90;;;;;;5099195;28;20024;-76
2023/04/28 02:15:31;;;;;;;7.97;4.13;;;12.20;99.90;;;;;;5099294;28;20116;-76
2023/04/28 02:17:57;;;;;;;9.82;4.50;;;12.20;99.90;;;;;;5099291;28;20016;-76
2023/04/28 02:20:22;;;;;;;10.70;4.55;;;12.20;99.90;;;;;;5099121;28;20030;-76
2023/04/28 02:22:48;;;;;;;9.70;5.00;;;12.20;99.90;;;;;;5099062;28;20092;-72
2023/04/28 02:25:13;;;;;;;7.47;4.80;;;12.10;99.90;;;;;;5098948;28;20092;-72
2023/04/28 02:27:39;;;;;;;14.18;5.75;;;12.10;99.90;;;;;;5099227;28;20063;-72
2023/04/28 02:30:05;;;;;;;8.70;4.75;;;12.10;99.90;;;;;;5098834;28;20089;-71
2023/04/28 02:32:31;;;;;;;14.43;5.00;;;12.10;99.90;;;;;;5103696;28;20127;-72
2023/04/28 02:34:57;;;;;;;10.85;4.60;;;12.10;99.90;;;;;;5098579;28;20070;-72
2023/04/28 02:37:22;;;;;;;12.40;4.95;;;12.20;99.90;;;;;;5098712;28;20020;-72
2023/04/28 02:39:48;;;;;;;9.98;4.88;;;12.00;99.90;;;;;;5098576;28;20021;-72
2023/04/28 02:42:13;;;;;;;12.30;5.60;;;12.00;99.90;;;;;;5098551;28;20028;-72
2023/04/28 02:44:39;;;;;;;13.10;5.53;;;12.00;99.90;;;;;;5098509;28;20036;-72
2023/04/28 02:47:04;;;;;;;11.80;5.65;;;12.10;99.90;;;;;;5098650;28;20028;-72
2023/04/28 02:49:30;;;;;;;12.75;5.50;;;12.00;99.90;;;;;;5098464;28;20039;-72
2023/04/28 02:51:56;;;;;;;12.80;6.05;;;11.90;99.90;;;;;;5098346;28;20081;-72
2023/04/28 02:54:27;;;;;;;11.15;6.07;;;11.90;99.90;;;;;;5103174;28;20032;-72
2023/04/28 02:56:54;;;;;;;16.88;5.82;;;11.80;99.90;;;;;;5099630;28;20020;-72
2023/04/28 02:59:20;;;;;;;15.80;5.65;;;11.90;99.90;;;;;;5098962;28;20028;-72
2023/04/28 03:01:46;;;;;;;11.57;5.32;;;11.80;99.90;;;;;;5098198;28;20016;-72
2023/04/28 03:04:12;;;;;;;11.27;5.68;;;11.90;99.90;;;;;;5099267;28;20020;-71
2023/04/28 03:06:38;;;;;;;9.57;4.65;;;11.90;99.90;;;;;;5098015;28;20138;-72
2023/04/28 03:09:04;;;;;;;10.90;5.38;;;11.90;99.90;;;;;;5098275;28;20095;-72
2023/04/28 03:11:29;;;;;;;11.25;6.18;;;11.90;99.90;;;;;;5102217;28;20027;-72
2023/04/28 03:13:55;;;;;;;14.07;5.88;;;11.70;99.90;;;;;;5098012;28;20032;-72
2023/04/28 03:16:20;;;;;;;11.07;5.47;;;11.70;99.90;;;;;;5098346;28;20020;-72
2023/04/28 03:18:46;;;;;;;11.88;5.75;;;11.80;99.90;;;;;;5097845;28;20073;-72
2023/04/28 03:21:11;;;;;;;12.07;5.55;;;11.80;99.90;;;;;;5098069;28;20111;-72
2023/04/28 03:23:37;;;;;;;12.02;6.40;;;11.90;99.90;;;;;;5097942;28;20020;-72
2023/04/28 03:26:02;;;;;;;12.27;5.22;;;11.80;99.90;;;;;;5098373;28;20024;-72
2023/04/28 03:28:28;;;;;;;14.00;6.70;;;11.80;99.90;;;;;;5097662;28;20020;-72
2023/04/28 03:30:54;;;;;;;13.90;6.40;;;11.70;99.90;;;;;;5097624;28;20046;-72
2023/04/28 03:33:20;;;;;;;8.88;5.65;;;11.60;99.90;;;;;;5097742;28;20081;-72
2023/04/28 03:35:46;;;;;;;18.65;6.30;;;11.50;99.90;;;;;;5104518;28;20024;-72
2023/04/28 03:38:11;;;;;;;9.77;6.07;;;11.70;99.90;;;;;;5098090;28;20020;-72
2023/04/28 03:40:37;;;;;;;14.18;6.57;;;11.60;99.90;;;;;;5097544;28;20073;-72
2023/04/28 03:43:02;;;;;;;14.95;6.80;;;11.60;99.90;;;;;;5098541;28;20028;-72
2023/04/28 03:45:28;;;;;;;18.80;6.82;;;11.70;99.90;;;;;;5097653;28;20026;-71
2023/04/28 03:47:53;;;;;;;18.70;7.30;;;11.70;99.90;;;;;;5098899;28;20020;-72
2023/04/28 03:50:19;;;;;;;15.55;7.13;;;11.70;99.90;;;;;;5098099;28;20104;-73
2023/04/28 03:52:45;;;;;;;18.88;6.88;;;11.60;99.90;;;;;;5098827;28;20087;-73
2023/04/28 03:55:10;;;;;;;13.13;6.45;;;11.50;99.90;;;;;;5097367;28;20111;-73
2023/04/28 03:57:36;;;;;;;18.02;6.32;;;11.40;99.90;;;;;;5097085;28;20020;-73
2023/04/28 04:00:02;;;;;;;12.93;6.55;;;11.30;99.90;;;;;;5097108;28;20020;-73
2023/04/28 04:02:27;;;;;;;17.65;7.65;;;11.10;99.90;;;;;;5097306;28;20024;-73
2023/04/28 04:04:53;;;;;;;15.60;6.72;;;11.10;99.90;;;;;;5097046;28;20115;-74
2023/04/28 04:07:18;;;;;;;11.57;6.70;;;11.10;99.90;;;;;;5096810;28;20028;-73
2023/04/28 04:09:44;;;;;;;14.35;6.80;;;11.20;99.90;;;;;;5098077;28;20086;-73
2023/04/28 04:12:09;;;;;;;13.45;7.15;;;11.10;99.90;;;;;;5096846;28;20020;-73
2023/04/28 04:14:35;;;;;;;16.20;6.50;;;11.00;99.90;;;;;;5097805;28;20024;-74
2023/04/28 04:17:00;;;;;;;16.65;7.40;;;11.00;99.90;;;;;;5097768;28;20020;-75
2023/04/28 04:19:26;;;;;;;11.18;6.85;;;11.10;99.90;;;;;;5096842;28;20102;-75
2023/04/28 04:21:52;;;;;;;13.77;6.88;;;10.90;99.90;;;;;;5097643;28;20016;-75
2023/04/28 04:24:17;;;;;;;12.25;6.65;;;10.90;99.90;;;;;;5098170;28;20032;-77
2023/04/28 04:26:43;;;;;;;12.70;7.00;;;10.90;99.90;;;;;;5097776;28;20028;-76
2023/04/28 04:29:08;;;;;;;16.98;7.15;;;10.90;99.90;;;;;;5097841;28;20032;-76
2023/04/28 04:31:34;;;;;;;15.07;7.20;;;10.90;99.90;;;;;;5096510;28;20047;-77
2023/04/28 04:34:00;;;;;;;16.08;6.97;;;11.00;99.90;;;;;;5097042;28;20077;-76
2023/04/28 04:36:25;;;;;;;22.83;7.43;;;11.00;99.90;;;;;;5096537;28;20028;-76
2023/04/28 04:38:51;;;;;;;15.05;7.45;;;11.10;99.90;;;;;;5098028;28;20115;-76
2023/04/28 04:41:19;;;;;;;14.35;7.00;;;11.10;99.90;;;;;;5096931;28;20016;-76
2023/04/28 04:43:45;;;;;;;14.15;7.03;;;11.10;99.90;;;;;;5097358;28;20024;-76
2023/04/28 04:46:10;;;;;;;15.75;7.22;;;10.90;99.90;;;;;;5096293;28;20077;-76
2023/04/28 04:48:36;;;;;;;13.85;7.20;;;10.80;99.90;;;;;;5096316;28;20052;-76
2023/04/28 04:51:01;;;;;;;13.77;7.05;;;10.90;99.90;;;;;;5096326;28;20080;-76
2023/04/28 04:53:27;;;;;;;12.52;6.55;;;11.00;99.90;;;;;;5096472;28;20059;-76
2023/04/28 04:55:52;;;;;;;17.10;7.43;;;11.10;99.90;;;;;;5098147;28;20032;-76
2023/04/28 04:58:18;;;;;;;16.73;8.50;;;11.00;99.90;;;;;;5096224;28;20027;-77
2023/04/28 05:00:44;;;;;;;12.23;7.32;;;11.10;99.90;;;;;;5096314;28;20023;-76
2023/04/28 05:03:10;;;;;;;13.50;7.47;;;11.10;99.90;;;;;;5097955;28;20016;-76
2023/04/28 05:05:36;;;;;;;13.18;7.97;;;11.10;99.90;;;;;;5097108;28;20024;-76
2023/04/28 05:08:01;;;;;;;20.33;8.57;;;11.00;99.90;;;;;;5096275;28;20028;-77
2023/04/28 05:10:27;;;;;;;14.85;6.63;;;11.00;99.90;;;;;;5097007;28;20031;-76
2023/04/28 05:12:53;;;;;;;17.08;7.05;;;11.00;99.90;;;;;;5098113;28;20020;-76
2023/04/28 05:15:18;;;;;;;14.82;7.75;;;11.00;99.90;;;;;;5096409;28;20020;-76
2023/04/28 05:17:44;;;;;;;20.02;7.80;;;11.10;99.90;;;;;;5097574;28;20060;-76
2023/04/28 05:20:10;;;;;;;16.55;7.75;;;11.10;99.90;;;;;;5098791;28;20020;-73
2023/04/28 05:22:35;;;;;;;12.55;6.88;;;11.00;99.90;;;;;;5097520;28;20028;-73
2023/04/28 05:25:01;;;;;;;13.70;7.85;;;11.00;99.90;;;;;;5097993;28;20019;-73
2023/04/28 05:27:26;;;;;;;17.20;7.70;;;11.00;99.90;;;;;;5097596;28;20020;-73
2023/04/28 05:29:52;;;;;;;13.45;6.95;;;11.10;99.90;;;;;;5097049;28;20153;-73
2023/04/28 05:32:17;;;;;;;14.80;7.80;;;11.10;99.90;;;;;;5096444;28;20020;-75
2023/04/28 05:34:43;;;;;;;21.65;7.70;;;11.10;99.90;;;;;;5096150;28;20024;-77
2023/04/28 05:37:08;;;;;;;16.52;7.80;;;11.10;99.90;;;;;;5098355;28;20021;-76
2023/04/28 05:39:34;;;;;;;14.45;7.35;;;11.10;99.90;;;;;;5096989;28;20027;-76
2023/04/28 05:41:59;;;;;;;15.20;7.90;;;11.10;99.90;;;;;;5100180;28;20056;-76
2023/04/28 05:44:25;;;;;;;12.20;7.45;;;11.00;99.90;;;;;;5104535;28;20024;-76
2023/04/28 05:46:50;;;;;;;12.05;6.97;;;11.00;99.90;;;;;;5106675;22;20036;-72
2023/04/28 05:49:16;;;;;;;14.40;7.07;;;11.00;99.90;;;;;;5059286;28;20021;-72
2023/04/28 05:51:42;;;;;;;22.17;8.63;;;11.20;99.90;;;;;;5059601;28;20013;-71
2023/04/28 05:54:08;;;;;;;13.65;7.53;;;11.20;99.90;;;;;;5060067;28;20029;-72
2023/04/28 05:56:33;;;;;;;15.13;8.05;;;11.10;99.90;;;;;;5065426;28;20023;-72
2023/04/28 05:59:02;;;;;;;12.30;6.85;;;11.10;99.90;;;;;;5096148;28;20027;-71
2023/04/28 06:01:28;;;;;;;17.23;8.23;;;11.10;99.90;;;;;;5096339;28;20028;-72
2023/04/28 06:03:56;;;;;;;16.02;7.95;;;11.10;99.90;;;;;;5079332;28;20028;-72
2023/04/28 06:06:22;;;;;;;14.95;7.78;;;11.10;99.90;;;;;;5079953;28;20031;-72
2023/04/28 06:08:47;;;;;;;13.95;7.45;;;11.10;99.90;;;;;;5078769;28;20029;-72
2023/04/28 06:11:13;;;;;;;14.48;7.90;;;11.20;99.90;;;;;;5078944;28;20035;-72
2023/04/28 06:13:38;;;;;;;19.10;8.05;;;11.10;99.90;;;;;;5079808;28;20040;-72
2023/04/28 06:16:05;;;;;;;14.02;7.97;;;11.10;99.90;;;;;;5079178;28;20032;-72
2023/04/28 06:18:34;;;;;;;13.32;8.18;;;11.10;99.90;;;;;;5078880;28;20062;-72
2023/04/28 06:21:00;;;;;;;16.27;9.00;;;11.00;99.90;;;;;;5079739;28;20115;-72
2023/04/28 06:23:25;;;;;;;17.13;8.05;;;11.00;99.90;;;;;;5078684;28;20052;-72
2023/04/28 06:25:51;;;;;;;16.30;9.32;;;11.00;99.90;;;;;;5078579;28;20028;-72
2023/04/28 06:28:16;;;;;;;15.70;8.43;;;11.00;99.90;;;;;;5079540;28;20088;-72
2023/04/28 06:30:42;;;;;;;19.35;8.82;;;10.90;99.90;;;;;;5078785;28;20055;-71
2023/04/28 06:33:08;;;;;;;22.67;9.93;;;11.00;99.90;;;;;;5078416;28;20254;-72
2023/04/28 06:35:35;;;;;;;16.67;9.95;;;11.00;99.90;;;;;;5079387;28;20047;-72
2023/04/28 06:38:02;;;;;;;19.25;9.48;;;11.00;99.90;;;;;;5078782;28;20025;-72
2023/04/28 06:40:28;;;;;;;23.48;10.35;;;11.10;99.90;;;;;;5078391;28;20025;-71
2023/04/28 06:42:53;;;;;;;18.65;10.02;;;11.10;99.90;;;;;;5078753;28;20028;-71
2023/04/28 06:45:19;;;;;;;21.48;10.07;;;11.10;99.90;;;;;;5078523;28;20028;-72
2023/04/28 06:47:45;;;;;;;21.15;9.52;;;11.10;99.90;;;;;;5078489;28;20086;-72
2023/04/28 06:50:10;;;;;;;17.50;8.57;;;11.00;99.90;;;;;;5078334;28;20032;-72
2023/04/28 06:52:37;;;;;;;14.30;8.40;;;11.00;99.90;;;;;;5078839;28;20028;-71
2023/04/28 06:55:04;;;;;;;17.33;9.52;;;11.20;99.90;;;;;;5078045;28;20024;-72
2023/04/28 06:57:30;;;;;;;16.40;7.75;;;11.30;99.90;;;;;;5078007;28;20074;-71
2023/04/28 06:59:56;;;;;;;15.65;8.20;;;11.00;99.90;;;;;;5078014;28;20016;-71
2023/04/28 07:02:21;;;;;;;17.30;8.55;;;11.00;99.90;;;;;;5078265;28;20082;-72
2023/04/28 07:04:47;;;;;;;15.13;9.38;;;10.90;99.90;;;;;;5078039;28;20024;-72
2023/04/28 07:07:13;;;;;;;14.77;8.23;;;10.90;99.90;;;;;;5078528;28;20025;-72
2023/04/28 07:09:38;;;;;;;15.80;8.68;;;10.60;99.90;;;;;;5077790;28;20024;-71
2023/04/28 07:12:04;;;;;;;16.85;9.52;;;10.50;99.90;;;;;;5078724;28;20021;-72
2023/04/28 07:14:29;;;;;;;17.70;8.85;;;10.60;99.90;;;;;;5094610;28;20024;-71
2023/04/28 07:16:55;;;;;;;16.98;9.02;;;10.70;99.90;;;;;;5077570;28;20111;-71
2023/04/28 07:19:21;;;;;;;20.08;8.48;;;10.80;99.90;;;;;;5077573;28;20024;-72
2023/04/28 07:21:46;;;;;;;18.60;9.10;;;10.60;99.90;;;;;;5077590;28;20046;-73
2023/04/28 07:24:12;;;;;;;19.98;9.35;;;10.50;99.90;;;;;;5078503;28;20024;-72
2023/04/28 07:26:37;;;;;;;20.45;9.95;;;10.70;99.90;;;;;;5094281;28;20032;-71
2023/04/28 07:29:03;;;;;;;23.27;9.38;;;11.10;99.90;;;;;;5077888;28;20028;-71
2023/04/28 07:31:28;;;;;;;15.90;8.77;;;11.30;99.90;;;;;;5077337;28;20031;-71
2023/04/28 07:33:54;;;;;;;17.55;9.23;;;11.30;99.90;;;;;;5077795;28;20115;-73
2023/04/28 07:36:20;;;;;;;15.57;8.98;;;11.40;99.90;;;;;;5077203;28;20027;-73
2023/04/28 07:38:46;;;;;;;21.92;10.75;;;11.40;99.90;;;;;;5078192;28;20024;-71
2023/04/28 07:41:12;;;;;;;19.73;9.68;;;11.40;99.90;;;;;;5077277;28;20024;-71
2023/04/28 07:43:38;;;;;;;20.02;9.80;;;11.30;99.90;;;;;;5077497;28;20020;-71
2023/04/28 07:46:05;;;;;;;22.42;11.13;;;11.20;99.90;;;;;;5077137;28;20021;-71
2023/04/28 07:48:31;;;;;;;21.52;11.18;;;11.10;99.90;;;;;;5077368;28;20032;-71
2023/04/28 07:50:56;;;;;;;16.45;7.97;;;11.10;99.90;;;;;;5076994;28;20028;-71
2023/04/28 07:53:22;;;;;;;16.15;8.77;;;11.10;99.90;;;;;;5076811;28;20025;-72
2023/04/28 07:55:47;;;;;;;17.70;9.00;;;10.90;99.90;;;;;;5093920;28;20030;-73
2023/04/28 07:58:13;;;;;;;18.35;8.18;;;10.90;99.90;;;;;;5077433;28;20080;-73
2023/04/28 08:00:39;;;;;;;18.15;8.90;;;11.00;99.90;;;;;;5076717;28;20070;-73
2023/04/28 08:03:04;;;;;;;17.35;9.15;;;11.20;99.90;;;;;;5077076;28;20075;-73
2023/04/28 08:05:31;;;;;;;14.90;8.35;;;11.40;99.90;;;;;;5076683;28;20029;-73
2023/04/28 08:07:57;;;;;;;15.15;9.02;;;11.40;99.90;;;;;;5077534;28;20067;-73
2023/04/28 08:10:25;;;;;;;14.65;7.82;;;11.50;99.90;;;;;;5076761;28;20116;-73
2023/04/28 08:12:51;;;;;;;10.40;6.88;;;11.50;99.90;;;;;;5077687;28;20035;-73
2023/04/28 08:15:16;;;;;;;15.70;8.63;;;11.60;99.90;;;;;;5077070;28;20020;-73
2023/04/28 08:17:42;;;;;;;14.13;7.55;;;11.70;99.90;;;;;;5076626;28;20020;-72
2023/04/28 08:20:08;;;;;;;15.52;8.32;;;11.40;99.90;;;;;;5076893;28;20028;-73
2023/04/28 08:22:34;;;;;;;15.15;8.57;;;11.40;99.90;;;;;;5078128;28;20066;-73
2023/04/28 08:24:59;;;;;;;16.55;9.07;;;11.40;99.90;;;;;;5076874;28;20024;-73
2023/04/28 08:27:25;;;;;;;16.33;7.82;;;11.50;99.90;;;;;;5076413;28;20020;-73
2023/04/28 08:29:51;;;;;;;22.88;9.30;;;11.50;99.90;;;;;;5077615;28;20024;-73
2023/04/28 08:32:17;;;;;;;17.65;7.50;;;11.60;99.90;;;;;;5077455;28;20020;-73
2023/04/28 08:34:42;;;;;;;15.73;8.30;;;11.70;99.90;;;;;;5076936;28;20031;-73
2023/04/28 08:37:08;;;;;;;11.38;7.07;;;12.00;99.90;;;;;;5077184;28;20050;-73
2023/04/28 08:39:34;;;;;;;11.27;7.07;;;12.00;99.90;;;;;;5076802;28;20021;-73
2023/04/28 08:42:03;;;;;;;10.13;7.03;;;11.90;99.90;;;;;;5094153;28;20107;-73
2023/04/28 08:44:35;;;;;;;13.48;8.98;;;11.80;99.90;;;;;;5077357;28;20017;-73
2023/04/28 08:47:03;;;;;;;13.50;7.40;;;11.70;99.90;;;;;;5076259;28;20039;-73
2023/04/28 08:49:35;;;;;;;11.57;7.50;;;11.50;99.90;;;;;;5093778;28;20024;-73
2023/04/28 08:52:00;;;;;;;11.77;7.57;;;11.80;99.90;;;;;;5076976;28;20020;-73
2023/04/28 08:54:36;;;;;;;14.00;7.72;;;11.90;99.90;;;;;;5076782;28;20035;-73
2023/04/28 08:57:03;;;;;;;15.32;7.63;;;12.00;99.90;;;;;;5076473;28;20020;-73
2023/04/28 08:59:30;;;;;;;14.77;7.57;;;12.10;99.90;;;;;;5076155;28;20028;-73
2023/04/28 09:01:55;;;;;;;13.05;7.55;;;12.10;99.90;;;;;;5077056;28;20092;-73
2023/04/28 09:04:21;;;;;;;13.35;8.32;;;12.10;99.90;;;;;;5076394;28;20052;-73
2023/04/28 09:06:47;;;;;;;15.45;8.60;;;12.10;99.90;;;;;;5076061;28;20025;-73
2023/04/28 09:09:24;;;;;;;14.05;7.85;;;11.90;99.90;;;;;;5076865;28;20050;-73
2023/04/28 09:11:59;;;;;;;12.00;7.40;;;11.90;99.90;;;;;;5076692;28;20027;-73
2023/04/28 09:14:26;;;;;;;14.15;7.53;;;12.00;99.90;;;;;;5075802;28;20021;-73
2023/04/28 09:16:53;;;;;;;13.30;7.28;;;12.20;99.90;;;;;;5079392;28;20121;-73
2023/04/28 09:19:19;;;;;;;9.07;6.18;;;12.10;99.90;;;;;;5081160;28;20017;-73
2023/04/28 09:21:56;;;;;;;11.43;6.28;;;12.10;99.90;;;;;;5079895;28;20020;-73
2023/04/28 09:24:48;;;;;;;7.55;5.53;;;12.40;99.90;;;;;;5080773;28;20039;-73
2023/04/28 09:27:14;;;;;;;11.07;6.25;;;12.40;99.90;;;;;;5078923;28;20036;-73
2023/04/28 09:29:51;;;;;;;7.53;5.85;;;12.20;99.90;;;;;;5079897;28;20120;-74
2023/04/28 09:32:19;;;;;;;9.27;6.32;;;12.20;99.90;;;;;;5080773;28;20064;-73
2023/04/28 09:34:50;;;;;;;11.40;6.47;;;12.30;99.90;;;;;;5080601;28;20024;-73
2023/04/28 09:37:18;;;;;;;9.10;6.72;;;12.30;99.90;;;;;;5079624;28;20025;-73
2023/04/28 09:39:45;;;;;;;11.82;6.20;;;12.50;99.90;;;;;;5080455;28;20046;-73
2023/04/28 09:42:34;;;;;;;8.82;5.82;;;12.70;99.90;;;;;;5080550;28;20028;-73
2023/04/28 09:45:02;;;;;;;9.68;6.22;;;12.80;99.90;;;;;;5080372;28;20047;-73
2023/04/28 09:47:28;;;;;;;12.18;6.15;;;12.70;99.90;;;;;;5079177;28;20036;-73
2023/04/28 09:49:59;;;;;;;12.75;6.40;;;12.60;99.90;;;;;;5080296;28;20024;-73
2023/04/28 09:52:25;;;;;;;11.70;7.20;;;12.50;99.90;;;;;;5079302;28;20107;-73
2023/04/28 09:54:54;;;;;;;10.13;6.45;;;12.30;99.90;;;;;;5080268;28;20024;-73
2023/04/28 09:57:21;;;;;;;12.15;6.97;;;12.30;99.90;;;;;;5079049;28;20016;-73
2023/04/28 09:59:48;;;;;;;11.13;6.88;;;12.30;99.90;;;;;;5079065;28;20162;-73
2023/04/28 10:02:15;;;;;;;12.10;8.00;;;12.30;99.90;;;;;;5079233;28;20028;-73
2023/04/28 10:04:46;;;;;;;10.30;6.75;;;12.10;99.90;;;;;;5079853;28;20279;-73
2023/04/28 10:07:13;;;;;;;13.57;7.60;;;12.20;99.90;;;;;;5079567;28;20029;-73
2023/04/28 10:09:42;;;;;;;10.77;7.60;;;12.30;99.90;;;;;;5079808;28;20016;-73
2023/04/28 10:12:09;;;;;;;11.48;7.32;;;12.70;99.90;;;;;;5078931;28;20040;-73
2023/04/28 10:14:36;;;;;;;12.25;7.72;;;12.80;99.90;;;;;;5079090;28;20116;-73
2023/04/28 10:17:04;;;;;;;11.75;7.55;;;12.60;99.90;;;;;;5079107;28;20059;-73
2023/04/28 10:19:29;;;;;;;15.43;8.27;;;12.70;99.90;;;;;;5079817;28;20017;-73
2023/04/28 10:22:28;;;;;;;14.98;8.25;;;12.70;99.90;;;;;;5079551;28;20024;-73
2023/04/28 10:25:11;;;;;;;11.82;7.13;;;12.70;99.90;;;;;;5076770;28;20037;-73
2023/04/28 10:27:42;;;;;;;13.45;7.97;;;12.80;99.90;;;;;;5095049;28;20024;-73
2023/04/28 10:30:13;;;;;;;13.00;7.45;;;13.10;99.90;;;;;;5078811;28;20025;-73
2023/04/28 10:32:39;;;;;;;11.45;7.90;;;13.20;99.90;;;;;;5079879;28;20028;-73
2023/04/28 10:35:20;;;;;;;12.68;7.72;;;13.10;99.90;;;;;;5078455;28;20024;-73
2023/04/28 10:38:04;;;;;;;19.33;9.27;;;13.20;99.90;;;;;;5095418;28;20029;-72
2023/04/28 10:40:40;;;;;;;15.82;9.07;;;12.90;99.90;;;;;;5079440;28;20051;-72
2023/04/28 10:43:08;;;;;;;14.05;8.30;;;12.70;99.90;;;;;;5095263;28;20051;-73
2023/04/28 10:45:55;;;;;;;13.13;8.63;;;12.70;99.90;;;;;;5078301;28;20021;-73
2023/04/28 10:48:33;;;;;;;13.88;8.20;;;12.80;99.90;;;;;;5095822;28;20060;-73
2023/04/28 10:51:05;;;;;;;18.30;9.65;;;12.70;99.90;;;;;;5095143;28;20067;-73
2023/04/28 10:56:10;;;;;;;16.02;9.20;;;12.90;99.90;;;;;;5079302;28;20024;-73
2023/04/28 10:58:40;;;;;;;13.82;8.38;;;13.10;99.90;;;;;;5078802;28;20053;-73
2023/04/28 11:01:21;;;;;;;17.15;8.27;;;13.40;99.90;;;;;;5078170;28;20028;-74
2023/04/28 11:03:47;;;;;;;17.80;10.07;;;13.50;99.90;;;;;;5094887;28;20025;-72
2023/04/28 11:06:26;;;;;;;16.80;9.50;;;13.40;99.90;;;;;;5077725;28;20025;-73
2023/04/28 11:08:56;;;;;;;17.05;9.52;;;13.10;99.90;;;;;;5095012;28;20039;-73
2023/04/28 11:11:24;;;;;;;16.10;8.88;;;13.00;99.90;;;;;;5079064;28;20020;-73
2023/04/28 11:13:51;;;;;;;12.90;8.57;;;13.30;99.90;;;;;;5078594;28;20078;-73
2023/04/28 11:16:19;;;;;;;17.60;9.73;;;13.60;99.90;;;;;;5077605;28;20048;-73
2023/04/28 11:18:52;;;;;;;15.40;9.18;;;13.90;99.90;;;;;;5077645;28;20043;-73
2023/04/28 11:21:21;;;;;;;16.75;9.45;;;14.10;99.90;;;;;;5094666;28;20025;-72
2023/04/28 11:23:47;;;;;;;17.85;9.02;;;14.10;99.90;;;;;;5077587;28;20028;-73
2023/04/28 11:26:13;;;;;;;12.95;8.10;;;14.30;99.90;;;;;;5078350;28;20050;-72
2023/04/28 11:28:56;;;;;;;14.35;8.18;;;14.50;99.90;;;;;;5077888;28;20028;-73
2023/04/28 11:31:23;;;;;;;18.20;9.70;;;14.60;99.90;;;;;;5078247;28;20052;-73
2023/04/28 11:33:54;;;;;;;15.23;9.38;;;14.20;99.90;;;;;;5078132;28;20119;-73
2023/04/28 11:36:33;;;;;;;16.83;9.90;;;14.20;99.90;;;;;;5077356;28;20024;-73
2023/04/28 11:38:59;;;;;;;19.80;10.57;;;13.90;99.90;;;;;;5076854;28;20263;-74
2023/04/28 11:41:25;;;;;;;13.93;9.10;;;13.80;99.90;;;;;;5077482;28;20031;-73
2023/04/28 11:43:51;;;;;;;18.98;10.52;;;13.90;99.90;;;;;;5077472;28;20020;-73
2023/04/28 11:46:21;;;;;;;15.60;10.10;;;14.10;99.90;;;;;;5077773;28;20170;-73
2023/04/28 11:48:48;;;;;;;16.23;9.13;;;14.10;99.90;;;;;;5078385;28;20052;-74
2023/04/28 11:51:37;;;;;;;17.15;9.65;;;14.40;99.90;;;;;;5077058;28;20028;-73
2023/04/28 11:54:06;;;;;;;17.45;8.88;;;14.40;99.90;;;;;;5077959;28;20027;-74
2023/04/28 11:56:36;;;;;;;18.40;9.77;;;14.30;99.90;;;;;;5077635;28;20023;-74
2023/04/28 11:59:09;;;;;;;15.85;9.98;;;14.20;99.90;;;;;;5077968;28;20021;-74
2023/04/28 12:01:44;;;;;;;15.57;9.35;;;14.60;99.90;;;;;;5076722;28;20028;-74
2023/04/28 12:04:11;;;;;;;14.82;8.95;;;15.00;99.90;;;;;;5077792;28;20020;-75
2023/04/28 12:06:37;;;;;;;16.88;10.18;;;15.40;99.90;;;;;;5076674;28;20056;-74
2023/04/28 12:09:15;;;;;;;16.15;8.50;;;15.50;99.90;;;;;;5077896;28;20103;-75
2023/04/28 12:11:56;;;;;;;12.35;8.52;;;16.00;99.90;;;;;;5077680;28;20075;-75
2023/04/28 12:14:22;;;;;;;13.32;8.63;;;15.70;99.90;;;;;;5076675;28;20078;-73
2023/04/28 12:16:48;;;;;;;17.77;8.25;;;15.30;99.90;;;;;;5076895;28;20021;-74
2023/04/28 12:19:14;;;;;;;14.77;9.30;;;15.20;99.90;;;;;;5076956;28;20048;-74
2023/04/28 12:21:41;;;;;;;13.23;8.60;;;15.30;99.90;;;;;;5077357;28;20031;-74
2023/04/28 12:24:20;;;;;;;14.68;9.60;;;15.40;99.90;;;;;;5076608;28;20115;-74
2023/04/28 12:26:47;;;;;;;18.52;10.23;;;15.70;99.90;;;;;;5077424;28;20028;-74
2023/04/28 12:29:38;;;;;;;14.27;8.73;;;16.00;99.90;;;;;;5076548;28;20021;-74
2023/04/28 12:32:13;;;;;;;13.13;8.18;;;16.80;99.90;;;;;;5076768;28;20028;-74
2023/04/28 12:34:40;;;;;;;14.07;9.02;;;16.80;99.90;;;;;;5076400;28;20028;-74
2023/04/28 12:37:06;;;;;;;15.18;8.68;;;16.30;99.90;;;;;;5076238;28;20031;-73
2023/04/28 12:39:33;;;;;;;14.25;9.02;;;16.10;99.90;;;;;;5076345;28;20024;-74
2023/04/28 12:42:01;;;;;;;15.02;8.52;;;16.10;99.90;;;;;;5077354;28;20016;-73